Time,TemperatureF,DewpointF,PressureIn,WindDirection,WindDirectionDegrees,WindSpeedMPH,WindSpeedGustMPH,Humidity,HourlyPrecipIn,Conditions,Clouds,dailyrainin,SoftwareType,DateUTC
2013-05-12 00:02:00,41.0,31.0,30.08,WNW,284,0.0,4.0,66,0.00,,,0.00,,2013-05-12 05:02:00,
2013-05-12 00:12:00,41.0,31.0,30.08,WNW,284,0.0,4.0,66,0.00,,,0.00,,2013-05-12 05:12:00,
2013-05-12 00:22:00,42.0,29.0,30.08,WNW,294,2.0,6.0,60,0.00,,,0.00,,2013-05-12 05:22:00,
2013-05-12 00:32:00,42.0,29.0,30.08,WNW,302,1.0,4.0,60,0.00,,,0.00,,2013-05-12 05:32:00,
2013-05-12 00:42:00,42.0,29.0,30.08,WNW,302,1.0,4.0,60,0.00,,,0.00,,2013-05-12 05:42:00,
2013-05-12 00:52:00,42.0,29.0,30.08,West,281,1.0,7.0,59,0.00,,,0.00,,2013-05-12 05:52:00,
2013-05-12 01:01:00,43.0,29.0,30.09,WNW,287,2.0,8.0,57,0.00,,,0.00,,2013-05-12 06:01:00,
2013-05-12 01:11:00,43.0,29.0,30.09,WNW,287,2.0,8.0,57,0.00,,,0.00,,2013-05-12 06:11:00,
2013-05-12 01:21:00,42.0,28.0,30.08,NW,309,2.0,8.0,57,0.00,,,0.00,,2013-05-12 06:21:00,
2013-05-12 01:32:00,42.0,28.0,30.09,West,266,2.0,7.0,58,0.00,,,0.00,,2013-05-12 06:32:00,
2013-05-12 01:42:00,42.0,28.0,30.09,West,266,2.0,7.0,58,0.00,,,0.00,,2013-05-12 06:42:00,
2013-05-12 01:52:00,42.0,27.0,30.09,NNW,329,2.0,9.0,56,0.00,,,0.00,,2013-05-12 06:52:00,
2013-05-12 02:01:00,42.0,28.0,30.09,NW,315,1.0,7.0,57,0.00,,,0.00,,2013-05-12 07:01:00,
2013-05-12 02:11:00,42.0,28.0,30.09,NW,315,1.0,7.0,57,0.00,,,0.00,,2013-05-12 07:11:00,
2013-05-12 02:21:00,42.0,28.0,30.09,WNW,298,1.0,6.0,58,0.00,,,0.00,,2013-05-12 07:21:00,
2013-05-12 02:32:00,41.0,28.0,30.09,West,273,1.0,5.0,60,0.00,,,0.00,,2013-05-12 07:32:00,
2013-05-12 02:42:00,41.0,28.0,30.09,West,273,1.0,5.0,60,0.00,,,0.00,,2013-05-12 07:42:00,
2013-05-12 02:52:00,41.0,29.0,30.09,NW,305,1.0,5.0,61,0.00,,,0.00,,2013-05-12 07:52:00,
2013-05-12 03:02:00,40.0,28.0,30.09,NW,321,0.0,4.0,63,0.00,,,0.00,,2013-05-12 08:02:00,
2013-05-12 03:11:00,40.0,28.0,30.09,NW,321,0.0,4.0,63,0.00,,,0.00,,2013-05-12 08:11:00,
2013-05-12 03:21:00,39.0,28.0,30.09,West,262,0.0,4.0,64,0.00,,,0.00,,2013-05-12 08:21:00,
2013-05-12 03:32:00,39.0,28.0,30.09,West,281,1.0,5.0,65,0.00,,,0.00,,2013-05-12 08:32:00,
2013-05-12 03:41:00,39.0,28.0,30.09,West,281,1.0,5.0,65,0.00,,,0.00,,2013-05-12 08:41:00,
2013-05-12 03:53:00,39.0,29.0,30.09,West,267,0.0,5.0,66,0.00,,,0.00,,2013-05-12 08:53:00,
2013-05-12 04:01:00,38.0,28.0,30.09,NW,311,0.0,4.0,67,0.00,,,0.00,,2013-05-12 09:01:00,
2013-05-12 04:11:00,38.0,28.0,30.09,NW,311,0.0,4.0,67,0.00,,,0.00,,2013-05-12 09:11:00,
2013-05-12 04:21:00,38.0,28.0,30.10,NW,312,0.0,3.0,68,0.00,,,0.00,,2013-05-12 09:21:00,
2013-05-12 04:33:00,38.0,29.0,30.10,West,279,0.0,3.0,69,0.00,,,0.00,,2013-05-12 09:33:00,
2013-05-12 04:42:00,38.0,29.0,30.10,West,279,0.0,3.0,69,0.00,,,0.00,,2013-05-12 09:42:00,
2013-05-12 04:53:00,38.0,29.0,30.10,West,281,0.0,3.0,70,0.00,,,0.00,,2013-05-12 09:53:00,
2013-05-12 05:03:00,37.0,28.0,30.10,WNW,293,0.0,2.0,70,0.00,,,0.00,,2013-05-12 10:03:00,
2013-05-12 05:12:00,37.0,28.0,30.10,WNW,293,0.0,2.0,70,0.00,,,0.00,,2013-05-12 10:12:00,
2013-05-12 05:22:00,37.0,28.0,30.10,WNW,290,0.0,3.0,71,0.00,,,0.00,,2013-05-12 10:22:00,
2013-05-12 05:33:00,37.0,29.0,30.10,West,277,0.0,3.0,72,0.00,,,0.00,,2013-05-12 10:33:00,
2013-05-12 05:42:00,37.0,29.0,30.10,West,277,0.0,3.0,72,0.00,,,0.00,,2013-05-12 10:42:00,
2013-05-12 05:52:00,37.0,29.0,30.11,WNW,302,0.0,5.0,72,0.00,,,0.00,,2013-05-12 10:52:00,
2013-05-12 06:02:00,37.0,29.0,30.11,West,260,0.0,3.0,72,0.00,,,0.00,,2013-05-12 11:02:00,
2013-05-12 06:12:00,37.0,29.0,30.11,West,260,0.0,3.0,72,0.00,,,0.00,,2013-05-12 11:12:00,
2013-05-12 06:22:00,36.0,29.0,30.11,West,276,0.0,3.0,74,0.00,,,0.00,,2013-05-12 11:22:00,
2013-05-12 06:32:00,36.0,29.0,30.12,WNW,298,1.0,3.0,74,0.00,,,0.00,,2013-05-12 11:32:00,
2013-05-12 06:42:00,36.0,29.0,30.12,WNW,298,1.0,3.0,74,0.00,,,0.00,,2013-05-12 11:42:00,
2013-05-12 06:52:00,38.0,29.0,30.12,WNW,288,1.0,6.0,71,0.00,,,0.00,,2013-05-12 11:52:00,
2013-05-12 07:01:00,39.0,29.0,30.13,WNW,288,1.0,6.0,68,0.00,,,0.00,,2013-05-12 12:01:00,
2013-05-12 07:11:00,39.0,29.0,30.13,WNW,288,1.0,6.0,68,0.00,,,0.00,,2013-05-12 12:11:00,
2013-05-12 07:21:00,40.0,30.0,30.13,WNW,302,3.0,7.0,67,0.00,,,0.00,,2013-05-12 12:21:00,
2013-05-12 07:32:00,41.0,31.0,30.13,NW,311,2.0,6.0,68,0.00,,,0.00,,2013-05-12 12:32:00,
2013-05-12 07:41:00,41.0,31.0,30.13,NW,311,2.0,6.0,68,0.00,,,0.00,,2013-05-12 12:41:00,
2013-05-12 07:52:00,42.0,31.0,30.14,WNW,300,3.0,7.0,64,0.00,,,0.00,,2013-05-12 12:52:00,
2013-05-12 08:01:00,43.0,30.0,30.14,ENE,72,2.0,6.0,60,0.00,,,0.00,,2013-05-12 13:01:00,
2013-05-12 08:11:00,43.0,30.0,30.14,ENE,72,2.0,6.0,60,0.00,,,0.00,,2013-05-12 13:11:00,
2013-05-12 08:21:00,44.0,31.0,30.14,SSW,196,3.0,10.0,59,0.00,,,0.00,,2013-05-12 13:21:00,
2013-05-12 08:32:00,45.0,31.0,30.14,NNW,328,2.0,10.0,58,0.00,,,0.00,,2013-05-12 13:32:00,
2013-05-12 08:42:00,45.0,31.0,30.14,NNW,328,2.0,10.0,58,0.00,,,0.00,,2013-05-12 13:42:00,
2013-05-12 08:52:00,45.0,30.0,30.15,NNW,343,4.0,11.0,56,0.00,,,0.00,,2013-05-12 13:52:00,
2013-05-12 09:01:00,46.0,32.0,30.15,ENE,65,3.0,9.0,57,0.00,,,0.00,,2013-05-12 14:01:00,
2013-05-12 09:11:00,46.0,32.0,30.15,ENE,65,3.0,9.0,57,0.00,,,0.00,,2013-05-12 14:11:00,
2013-05-12 09:21:00,46.0,30.0,30.15,WSW,255,4.0,8.0,53,0.00,,,0.00,,2013-05-12 14:21:00,
2013-05-12 09:31:00,46.0,30.0,30.15,NNE,17,4.0,10.0,53,0.00,,,0.00,,2013-05-12 14:31:00,
2013-05-12 09:42:00,47.0,29.0,30.16,NNW,334,5.0,9.0,50,0.00,,,0.00,,2013-05-12 14:42:00,
2013-05-12 09:52:00,47.0,29.0,30.16,NNW,334,5.0,9.0,50,0.00,,,0.00,,2013-05-12 14:52:00,
2013-05-12 10:01:00,47.0,29.0,30.15,NNE,26,3.0,9.0,50,0.00,,,0.00,,2013-05-12 15:01:00,
2013-05-12 10:11:00,47.0,29.0,30.15,NNE,26,3.0,9.0,50,0.00,,,0.00,,2013-05-12 15:11:00,
2013-05-12 10:21:00,48.0,30.0,30.16,North,350,3.0,10.0,50,0.00,,,0.00,,2013-05-12 15:21:00,
2013-05-12 10:34:00,48.0,30.0,30.16,NW,313,4.0,13.0,50,0.00,,,0.00,,2013-05-12 15:34:00,
2013-05-12 10:42:00,48.0,30.0,30.16,NW,313,4.0,13.0,50,0.00,,,0.00,,2013-05-12 15:42:00,
2013-05-12 10:53:00,49.0,31.0,30.16,North,355,4.0,9.0,50,0.00,,,0.00,,2013-05-12 15:53:00,
2013-05-12 11:02:00,49.0,31.0,30.16,WNW,299,3.0,10.0,50,0.00,,,0.00,,2013-05-12 16:02:00,
2013-05-12 11:12:00,49.0,31.0,30.16,WNW,299,3.0,10.0,50,0.00,,,0.00,,2013-05-12 16:12:00,
2013-05-12 11:23:00,50.0,32.0,30.16,WNW,292,4.0,11.0,49,0.00,,,0.00,,2013-05-12 16:23:00,
2013-05-12 11:33:00,50.0,31.0,30.16,West,263,3.0,10.0,47,0.00,,,0.00,,2013-05-12 16:33:00,
2013-05-12 11:42:00,50.0,31.0,30.16,West,263,3.0,10.0,47,0.00,,,0.00,,2013-05-12 16:42:00,
2013-05-12 11:53:00,50.0,30.0,30.16,NNW,342,4.0,9.0,46,0.00,,,0.00,,2013-05-12 16:53:00,
2013-05-12 12:02:00,51.0,30.0,30.16,West,273,6.0,13.0,45,0.00,,,0.00,,2013-05-12 17:02:00,
2013-05-12 12:12:00,51.0,30.0,30.16,West,273,6.0,13.0,45,0.00,,,0.00,,2013-05-12 17:12:00,
2013-05-12 12:22:00,51.0,30.0,30.16,WNW,287,4.0,10.0,45,0.00,,,0.00,,2013-05-12 17:22:00,
2013-05-12 12:32:00,52.0,32.0,30.16,West,259,7.0,14.0,46,0.00,,,0.00,,2013-05-12 17:32:00,
2013-05-12 12:42:00,52.0,32.0,30.16,West,259,7.0,14.0,46,0.00,,,0.00,,2013-05-12 17:42:00,
2013-05-12 12:53:00,52.0,32.0,30.15,NE,37,4.0,13.0,46,0.00,,,0.00,,2013-05-12 17:53:00,
2013-05-12 13:01:00,53.0,31.0,30.15,WSW,242,5.0,12.0,42,0.00,,,0.00,,2013-05-12 18:01:00,
2013-05-12 13:12:00,53.0,31.0,30.15,WSW,242,5.0,12.0,42,0.00,,,0.00,,2013-05-12 18:12:00,
2013-05-12 13:22:00,53.0,29.0,30.15,West,274,5.0,13.0,39,0.00,,,0.00,,2013-05-12 18:22:00,
2013-05-12 13:32:00,54.0,30.0,30.15,WNW,294,8.0,13.0,39,0.00,,,0.00,,2013-05-12 18:32:00,
2013-05-12 13:42:00,54.0,30.0,30.15,WNW,294,8.0,13.0,39,0.00,,,0.00,,2013-05-12 18:42:00,
2013-05-12 13:52:00,54.0,28.0,30.15,WSW,249,5.0,13.0,37,0.00,,,0.00,,2013-05-12 18:52:00,
2013-05-12 14:01:00,54.0,30.0,30.14,West,259,4.0,12.0,40,0.00,,,0.00,,2013-05-12 19:01:00,
2013-05-12 14:11:00,54.0,30.0,30.14,West,259,4.0,12.0,40,0.00,,,0.00,,2013-05-12 19:11:00,
2013-05-12 14:21:00,55.0,29.0,30.14,WSW,243,8.0,15.0,36,0.00,,,0.00,,2013-05-12 19:21:00,
2013-05-12 14:32:00,55.0,28.0,30.14,WSW,246,4.0,15.0,35,0.00,,,0.00,,2013-05-12 19:32:00,
2013-05-12 14:42:00,55.0,28.0,30.14,WSW,246,4.0,15.0,35,0.00,,,0.00,,2013-05-12 19:42:00,
2013-05-12 14:52:00,55.0,26.0,30.14,NW,311,6.0,14.0,33,0.00,,,0.00,,2013-05-12 19:52:00,
2013-05-12 15:02:00,55.0,28.0,30.14,WSW,256,5.0,11.0,35,0.00,,,0.00,,2013-05-12 20:02:00,
2013-05-12 15:11:00,55.0,28.0,30.14,WSW,256,5.0,11.0,35,0.00,,,0.00,,2013-05-12 20:11:00,
2013-05-12 15:21:00,56.0,29.0,30.13,WSW,237,3.0,11.0,36,0.00,,,0.00,,2013-05-12 20:21:00,
2013-05-12 15:32:00,56.0,27.0,30.12,NW,306,6.0,14.0,32,0.00,,,0.00,,2013-05-12 20:32:00,
2013-05-12 15:42:00,56.0,27.0,30.12,NW,306,6.0,14.0,32,0.00,,,0.00,,2013-05-12 20:42:00,
2013-05-12 15:52:00,56.0,28.0,30.11,East,88,5.0,12.0,34,0.00,,,0.00,,2013-05-12 20:52:00,
2013-05-12 16:01:00,56.0,27.0,30.12,NW,312,5.0,12.0,33,0.00,,,0.00,,2013-05-12 21:01:00,
2013-05-12 16:11:00,56.0,27.0,30.12,NW,312,5.0,12.0,33,0.00,,,0.00,,2013-05-12 21:11:00,
2013-05-12 16:21:00,57.0,29.0,30.11,West,272,7.0,13.0,34,0.00,,,0.00,,2013-05-12 21:21:00,
2013-05-12 16:33:00,56.0,26.0,30.11,NW,304,6.0,13.0,31,0.00,,,0.00,,2013-05-12 21:33:00,
2013-05-12 16:42:00,56.0,26.0,30.11,NW,304,6.0,13.0,31,0.00,,,0.00,,2013-05-12 21:42:00,
2013-05-12 16:53:00,56.0,26.0,30.11,West,263,6.0,14.0,31,0.00,,,0.00,,2013-05-12 21:53:00,
2013-05-12 17:02:00,57.0,29.0,30.10,WSW,252,4.0,10.0,34,0.00,,,0.00,,2013-05-12 22:02:00,
2013-05-12 17:12:00,57.0,29.0,30.10,WSW,252,4.0,10.0,34,0.00,,,0.00,,2013-05-12 22:12:00,
2013-05-12 17:23:00,57.0,28.0,30.10,NNW,333,2.0,13.0,33,0.00,,,0.00,,2013-05-12 22:23:00,
2013-05-12 17:33:00,57.0,27.0,30.10,WNW,302,3.0,12.0,32,0.00,,,0.00,,2013-05-12 22:33:00,
2013-05-12 17:42:00,57.0,27.0,30.10,WNW,302,3.0,12.0,32,0.00,,,0.00,,2013-05-12 22:42:00,
2013-05-12 17:52:00,57.0,28.0,30.10,SW,235,3.0,11.0,33,0.00,,,0.00,,2013-05-12 22:52:00,
2013-05-12 18:02:00,57.0,28.0,30.10,WNW,302,2.0,10.0,33,0.00,,,0.00,,2013-05-12 23:02:00,
2013-05-12 18:12:00,57.0,28.0,30.10,WNW,302,2.0,10.0,33,0.00,,,0.00,,2013-05-12 23:12:00,
2013-05-12 18:22:00,56.0,27.0,30.10,NW,307,3.0,13.0,33,0.00,,,0.00,,2013-05-12 23:22:00,
2013-05-12 18:32:00,55.0,27.0,30.10,WNW,301,4.0,11.0,34,0.00,,,0.00,,2013-05-12 23:32:00,
2013-05-12 18:42:00,55.0,27.0,30.10,WNW,301,4.0,11.0,34,0.00,,,0.00,,2013-05-12 23:42:00,
2013-05-12 18:52:00,55.0,26.0,30.10,West,275,6.0,14.0,33,0.00,,,0.00,,2013-05-12 23:52:00,
2013-05-12 19:01:00,55.0,27.0,30.10,WNW,302,3.0,11.0,34,0.00,,,0.00,,2013-05-13 00:01:00,
2013-05-12 19:11:00,55.0,27.0,30.10,WNW,302,3.0,11.0,34,0.00,,,0.00,,2013-05-13 00:11:00,
2013-05-12 19:21:00,54.0,27.0,30.09,WNW,297,3.0,10.0,35,0.00,,,0.00,,2013-05-13 00:21:00,
2013-05-12 19:32:00,53.0,27.0,30.09,WNW,300,3.0,9.0,37,0.00,,,0.00,,2013-05-13 00:32:00,
2013-05-12 19:42:00,53.0,27.0,30.09,WNW,300,3.0,9.0,37,0.00,,,0.00,,2013-05-13 00:42:00,
2013-05-12 19:52:00,53.0,27.0,30.10,WNW,300,2.0,9.0,36,0.00,,,0.00,,2013-05-13 00:52:00,
2013-05-12 20:01:00,52.0,27.0,30.09,WNW,298,1.0,6.0,38,0.00,,,0.00,,2013-05-13 01:01:00,
2013-05-12 20:11:00,52.0,27.0,30.09,WNW,298,1.0,6.0,38,0.00,,,0.00,,2013-05-13 01:11:00,
2013-05-12 20:22:00,51.0,28.0,30.10,WSW,257,0.0,4.0,40,0.00,,,0.00,,2013-05-13 01:22:00,
2013-05-12 20:31:00,50.0,28.0,30.10,West,272,0.0,3.0,43,0.00,,,0.00,,2013-05-13 01:31:00,
2013-05-12 20:42:00,50.0,28.0,30.10,West,272,0.0,3.0,43,0.00,,,0.00,,2013-05-13 01:42:00,
2013-05-12 20:52:00,49.0,28.0,30.11,NW,311,0.0,0.0,44,0.00,,,0.00,,2013-05-13 01:52:00,
2013-05-12 21:01:00,47.0,28.0,30.12,NW,311,0.0,0.0,47,0.00,,,0.00,,2013-05-13 02:01:00,
2013-05-12 21:11:00,47.0,28.0,30.12,NW,311,0.0,0.0,47,0.00,,,0.00,,2013-05-13 02:11:00,
2013-05-12 21:21:00,46.0,29.0,30.12,NW,311,0.0,0.0,52,0.00,,,0.00,,2013-05-13 02:21:00,
2013-05-12 21:31:00,44.0,29.0,30.12,NW,311,0.0,0.0,55,0.00,,,0.00,,2013-05-13 02:31:00,
2013-05-12 21:41:00,44.0,29.0,30.12,NW,311,0.0,0.0,55,0.00,,,0.00,,2013-05-13 02:41:00,
2013-05-12 21:52:00,43.0,30.0,30.13,NW,311,0.0,0.0,59,0.00,,,0.00,,2013-05-13 02:52:00,
2013-05-12 22:01:00,42.0,30.0,30.14,NW,311,0.0,0.0,62,0.00,,,0.00,,2013-05-13 03:01:00,
2013-05-12 22:11:00,42.0,30.0,30.14,NW,311,0.0,0.0,62,0.00,,,0.00,,2013-05-13 03:11:00,
2013-05-12 22:21:00,41.0,30.0,30.14,NW,311,0.0,0.0,65,0.00,,,0.00,,2013-05-13 03:21:00,
2013-05-12 22:32:00,40.0,30.0,30.13,NW,311,0.0,0.0,67,0.00,,,0.00,,2013-05-13 03:32:00,
2013-05-12 22:42:00,40.0,30.0,30.13,NW,311,0.0,0.0,67,0.00,,,0.00,,2013-05-13 03:42:00,
2013-05-12 22:53:00,40.0,30.0,30.13,NW,311,0.0,0.0,68,0.00,,,0.00,,2013-05-13 03:53:00,
2013-05-12 23:02:00,40.0,31.0,30.13,NW,311,0.0,0.0,69,0.00,,,0.00,,2013-05-13 04:02:00,
2013-05-12 23:12:00,40.0,31.0,30.13,NW,311,0.0,0.0,69,0.00,,,0.00,,2013-05-13 04:12:00,
2013-05-12 23:23:00,40.0,31.0,30.13,NW,311,0.0,0.0,69,0.00,,,0.00,,2013-05-13 04:23:00,
2013-05-12 23:32:00,40.0,30.0,30.13,NW,311,0.0,0.0,68,0.00,,,0.00,,2013-05-13 04:32:00,
2013-05-12 23:42:00,40.0,30.0,30.13,NW,311,0.0,0.0,68,0.00,,,0.00,,2013-05-13 04:42:00,
2013-05-12 23:52:00,40.0,30.0,30.13,NW,311,0.0,0.0,67,0.00,,,0.00,,2013-05-13 04:52:00,